Skip Navigation Links
NOAA logo - Click to go to the NOAA homepage
NOAA's National Weather Service
Alaska Aviation Weather Unit
  NWS logo - Click to go to the NWS homepage
Left Navbar Graphic     00 AKDT = 08 GMT

   
NOAA is celebrating 200 years of science, service, and stewardship. Visit the NOAA 200th celebration Web site to learn more.
USA.gov is the U.S. Government's official Web portal to all Federal, state and local government Web resources and services.
Facebook
NWS on Facebook

Important Change Regarding the AAWU Web Presence

 

Over the last several months, the AAWU has been working to navigate its webpages to a nationally supported server. Security, as well as other needs, have necessitated the change.  We have been given an extension for the site changeover while we diligently work at addressing feedback received. As of July 14, 2017, aawu.arh.noaa.gov will be discontinued. The new AAWU web address is weather.gov/aawu. It is now live and will run in-parallel with the old site until it is discontinued on July 14, 2017. Please continue to send any feedback or questions regarding the new webpages to nws.ar.aawu.webauthors@noaa.gov.  Thank you for your patience during this time of transition.
AAWU Home :: Display TAF Add Bookmark
TAF CYZY 101840Z 1019/1107 VRB03KT P6SM SKC RMK FCST BASED ON AUTO
      OBS. WND SENSORS INOP.
      NXT FCST BY 110100Z=

METAR CYZY 240200Z AUTO 15007KT 9SM OVC040 10/07 A2999 RMK SLP176= CYZY 240246Z AUTO 16006KT 9SM -RA SCT038 OVC055 09/07 A2998 RMK SLP174= METAR CYZY 240300Z AUTO 16007KT 9SM -RA OVC055 09/07 A2998 RMK SLP174= CYZY 240332Z AUTO 15007KT 9SM FEW016 OVC044 09/08 A2998 RMK SLP174= CYZY 240343Z AUTO 15007KT 9SM BKN014 OVC042 09/08 A2998 RMK SLP174= METAR CYZY 240400Z AUTO 16006KT 9SM BKN014 BKN019 OVC042 09/08 A2998 RMK SLP173= CYZY 240402Z AUTO 16007KT 9SM -RA BKN014 OVC019 09/08 A2998 RMK SLP173= METAR CYZY 240500Z AUTO 14008KT 9SM -RA FEW013 BKN017 OVC046 09/08 A2997 RMK SLP169= METAR CYZY 240600Z AUTO 15008KT 7SM -RA BKN013 BKN022 OVC038 09/08 A2997 RMK PCPN 0.5MM PAST HR SLP168= CYZY 240607Z AUTO 15007KT 8SM -RA SCT013 SCT022 OVC038 09/08 A2997 RMK SLP168= CYZY 240611Z AUTO 15007KT 8SM -RA SCT013 BKN020 OVC038 09/08 A2997 RMK SLP168= CYZY 240616Z AUTO 15007KT 8SM -RA SCT013 OVC038 09/08 A2997 RMK SLP168= CYZY 240617Z AUTO 14007KT 8SM -RA SCT013 BKN017 OVC038 09/08 A2997 RMK SLP168= CYZY 240647Z AUTO 15008KT 9SM -RA FEW012 SCT017 BKN038 OVC065 09/08 A2997 RMK SLP167= METAR CYZY 240700Z AUTO 15006KT 8SM -RA SCT010 BKN040 OVC065 09/08 A2997 RMK SLP166= CYZY 240701Z AUTO 15008KT 8SM -RA BKN010 BKN040 OVC065 09/08 A2997 RMK SLP166= CYZY 240704Z AUTO 15007KT 7SM RA SCT010 BKN040 OVC060 09/08 A2997 RMK SLP166= CYZY 240708Z AUTO 15008KT 5SM RA BR SCT010 OVC040 09/08 A2997 RMK SLP166= CYZY 240759Z AUTO 13007KT 6SM -RA BR SCT016 BKN027 OVC036 09/08 A2996 RMK SLP163= METAR CYZY 240800Z AUTO 13007KT 6SM -RA BR FEW016 BKN027 OVC036 09/08 A2996 RMK SLP162=
 Alaska TAF Map

NOAA's National Weather Service
Alaska Aviation Weather Unit
6930 Sand Lake Road
Anchorage, AK 99502-1845
Disclaimer
Credits
Glossary
Privacy Policy
About Us
Career Opportunities
Contact AAWU Internet Services Site last modified: April, 17th 2012